createdAt,value
2023-05-04T00:01:29.825Z,36.00
2023-05-04T00:03:57.346Z,34.75
2023-05-04T00:06:25.192Z,38.00
2023-05-04T00:08:52.516Z,37.50
2023-05-04T00:11:20.180Z,38.00
2023-05-04T00:13:47.377Z,38.25
2023-05-04T00:16:14.796Z,37.25
2023-05-04T00:18:42.191Z,39.00
2023-05-04T00:21:09.817Z,39.25
2023-05-04T00:23:37.159Z,38.00
2023-05-04T00:26:04.627Z,33.00
2023-05-04T00:28:32.223Z,38.75
2023-05-04T00:30:59.876Z,32.50
2023-05-04T00:33:27.122Z,37.75
2023-05-04T00:35:55.203Z,36.50
2023-05-04T00:38:22.725Z,37.00
2023-05-04T00:40:50.126Z,36.75
2023-05-04T00:43:17.414Z,36.00
2023-05-04T00:45:44.998Z,31.50
2023-05-04T00:48:12.583Z,37.00
2023-05-04T00:50:40.427Z,36.00
2023-05-04T00:53:11.931Z,35.00
2023-05-04T00:55:40.871Z,36.00
2023-05-04T00:58:11.660Z,35.00
2023-05-04T01:00:39.083Z,37.00
2023-05-04T01:03:06.538Z,35.00
2023-05-04T01:05:37.063Z,36.50
2023-05-04T01:08:08.905Z,31.00
2023-05-04T01:10:39.329Z,33.50
2023-05-04T01:13:14.631Z,34.25
2023-05-04T01:15:43.319Z,35.25
2023-05-04T01:18:10.459Z,35.00
2023-05-04T01:20:37.923Z,36.75
2023-05-04T01:23:05.644Z,35.50
2023-05-04T01:25:37.572Z,37.00
2023-05-04T01:28:11.750Z,36.00
2023-05-04T01:30:50.688Z,35.50
2023-05-04T01:33:18.993Z,38.75
2023-05-04T01:35:46.826Z,37.00
2023-05-04T01:38:14.066Z,29.00
2023-05-04T01:40:42.155Z,35.75
2023-05-04T01:43:09.636Z,37.25
2023-05-04T01:45:37.611Z,35.00
2023-05-04T01:48:05.211Z,31.75
2023-05-04T01:50:32.864Z,36.00
2023-05-04T01:52:59.801Z,37.00
2023-05-04T01:55:27.260Z,35.75
2023-05-04T01:57:54.325Z,37.00
2023-05-04T02:00:21.955Z,37.00
2023-05-04T02:02:49.149Z,37.00
2023-05-04T02:05:16.620Z,37.25
2023-05-04T02:07:43.610Z,35.50
2023-05-04T02:10:11.634Z,34.75
2023-05-04T02:12:38.831Z,37.00
2023-05-04T02:15:07.077Z,34.50
2023-05-04T02:17:34.137Z,36.00
2023-05-04T02:20:01.657Z,38.00
2023-05-04T02:22:28.672Z,34.75
2023-05-04T02:24:56.713Z,31.50
2023-05-04T02:27:23.804Z,37.00
2023-05-04T02:29:51.165Z,37.25
2023-05-04T02:32:18.257Z,39.75
2023-05-04T02:34:45.655Z,34.00
2023-05-04T02:37:13.139Z,39.00
2023-05-04T02:39:40.912Z,39.00
2023-05-04T02:42:08.039Z,40.50
2023-05-04T02:44:35.354Z,40.00
2023-05-04T02:47:02.702Z,41.00
2023-05-04T02:49:30.170Z,37.25
2023-05-04T02:51:57.557Z,35.00
2023-05-04T02:54:25.181Z,38.50
2023-05-04T02:56:52.100Z,38.50
2023-05-04T02:59:19.480Z,38.25
2023-05-04T03:01:46.800Z,38.00
2023-05-04T03:04:14.108Z,39.50
2023-05-04T03:06:41.035Z,40.50
2023-05-04T03:09:09.918Z,40.50
2023-05-04T03:11:37.477Z,41.00
2023-05-04T03:14:04.858Z,37.50
2023-05-04T03:16:32.166Z,35.25
2023-05-04T03:18:59.505Z,38.00
2023-05-04T03:21:26.872Z,33.25
2023-05-04T03:23:54.288Z,36.00
2023-05-04T03:26:21.923Z,35.25
2023-05-04T03:28:49.472Z,34.00
2023-05-04T03:31:16.589Z,32.75
2023-05-04T03:33:44.061Z,31.00
2023-05-04T03:36:11.650Z,32.50
2023-05-04T03:38:39.145Z,31.00
2023-05-04T03:41:06.209Z,32.75
2023-05-04T03:43:33.632Z,28.00
2023-05-04T03:46:00.834Z,33.00
2023-05-04T03:48:28.237Z,33.00
2023-05-04T03:50:55.493Z,36.50
2023-05-04T03:53:23.211Z,37.00
2023-05-04T03:55:50.450Z,36.50
2023-05-04T03:58:17.851Z,38.00
2023-05-04T04:00:44.876Z,37.00
2023-05-04T04:03:12.225Z,39.00
2023-05-04T04:05:39.372Z,36.00
2023-05-04T04:08:06.901Z,26.75
2023-05-04T04:10:35.448Z,36.25
2023-05-04T04:13:03.378Z,36.75
2023-05-04T04:15:30.768Z,35.00
2023-05-04T04:17:58.082Z,35.50
2023-05-04T04:20:25.543Z,34.25
2023-05-04T04:22:52.969Z,36.00
2023-05-04T04:25:20.263Z,34.75
2023-05-04T04:27:47.903Z,37.50
2023-05-04T04:30:15.275Z,40.50
2023-05-04T04:32:43.288Z,39.00
2023-05-04T04:35:10.545Z,39.25
2023-05-04T04:37:38.255Z,36.50
2023-05-04T04:40:07.576Z,40.00
2023-05-04T04:42:35.022Z,32.75
2023-05-04T04:45:05.485Z,40.75
2023-05-04T04:47:33.303Z,44.50
2023-05-04T04:50:00.537Z,37.75
2023-05-04T04:52:28.014Z,39.00
2023-05-04T04:54:55.092Z,40.00
2023-05-04T04:57:22.473Z,39.00
2023-05-04T04:59:49.631Z,38.50
2023-05-04T05:02:16.900Z,39.75
2023-05-04T05:04:43.924Z,42.25
2023-05-04T05:07:11.520Z,38.00
2023-05-04T05:09:38.870Z,35.50
2023-05-04T05:12:06.507Z,37.50
2023-05-04T05:14:33.824Z,36.50
2023-05-04T05:17:04.049Z,35.75
2023-05-04T05:19:34.289Z,12.25
2023-05-04T05:22:01.840Z,36.50
2023-05-04T05:24:28.874Z,33.75
2023-05-04T05:26:56.682Z,34.75
2023-05-04T05:29:25.037Z,35.50
2023-05-04T05:31:52.416Z,34.25
2023-05-04T05:34:19.655Z,33.25
2023-05-04T05:36:48.597Z,30.75
2023-05-04T05:39:16.055Z,33.00
2023-05-04T05:41:43.818Z,30.75
2023-05-04T05:44:12.951Z,33.00
2023-05-04T05:46:40.812Z,32.75
2023-05-04T05:49:08.049Z,35.75
2023-05-04T05:51:35.707Z,31.00
2023-05-04T05:54:02.670Z,31.25
2023-05-04T05:56:30.869Z,32.00
2023-05-04T05:58:58.322Z,31.25
2023-05-04T06:01:26.732Z,29.50
2023-05-04T06:03:55.621Z,32.00
2023-05-04T06:06:23.230Z,28.00
2023-05-04T06:08:50.441Z,30.75
2023-05-04T06:11:17.965Z,27.75
2023-05-04T06:13:44.976Z,29.50
2023-05-04T06:16:12.384Z,25.50
2023-05-04T06:18:39.840Z,29.50
2023-05-04T06:21:08.216Z,28.00
2023-05-04T06:23:35.224Z,27.00
2023-05-04T06:26:05.354Z,20.67
2023-05-04T06:28:32.609Z,21.33
2023-05-04T06:31:00.104Z,24.00
2023-05-04T06:33:27.620Z,25.33
2023-05-04T06:35:55.157Z,21.67
2023-05-04T06:38:22.321Z,25.00
2023-05-04T06:40:49.833Z,25.67
2023-05-04T06:43:17.259Z,20.33
2023-05-04T06:45:44.889Z,25.00
2023-05-04T06:48:12.361Z,22.33
2023-05-04T06:50:40.181Z,22.00
2023-05-04T06:53:09.167Z,23.00
2023-05-04T06:55:37.457Z,21.33
2023-05-04T06:58:04.903Z,22.00
2023-05-04T07:00:32.728Z,23.67
2023-05-04T07:03:00.395Z,21.00
2023-05-04T07:05:29.151Z,23.33
2023-05-04T07:07:56.536Z,22.00
2023-05-04T07:10:24.332Z,23.67
2023-05-04T07:12:51.698Z,23.67
2023-05-04T07:15:19.121Z,22.67
2023-05-04T07:17:47.254Z,22.00
2023-05-04T07:20:17.337Z,23.00
2023-05-04T07:22:44.611Z,24.67
2023-05-04T07:25:12.731Z,22.00
2023-05-04T07:27:40.576Z,21.00
2023-05-04T07:30:08.488Z,21.00
2023-05-04T07:32:35.741Z,19.00
2023-05-04T07:35:03.089Z,21.33
2023-05-04T07:37:30.230Z,18.00
2023-05-04T07:40:00.350Z,19.00
2023-05-04T07:42:29.146Z,17.67
2023-05-04T07:44:56.668Z,21.67
2023-05-04T07:47:24.692Z,19.33
2023-05-04T07:49:52.736Z,21.00
2023-05-04T07:52:21.351Z,20.67
2023-05-04T07:54:52.868Z,22.00
2023-05-04T07:57:20.757Z,19.67
2023-05-04T07:59:48.713Z,11.00
2023-05-04T08:02:15.937Z,20.67
2023-05-04T08:04:43.465Z,20.00
2023-05-04T08:07:10.471Z,20.33
2023-05-04T08:09:38.003Z,19.67
2023-05-04T08:12:06.042Z,21.67
2023-05-04T08:14:35.263Z,18.67
2023-05-04T08:17:04.157Z,13.00
2023-05-04T08:19:31.635Z,16.00
2023-05-04T08:21:58.671Z,18.00
2023-05-04T08:24:26.243Z,11.67
2023-05-04T08:27:04.152Z,16.00
2023-05-04T08:29:37.523Z,14.67
2023-05-04T08:32:05.211Z,14.33
2023-05-04T08:34:32.731Z,13.00
2023-05-04T08:37:00.180Z,12.67
2023-05-04T08:39:27.639Z,6.00
2023-05-04T08:41:54.690Z,12.00
2023-05-04T08:44:22.551Z,12.00
2023-05-04T08:46:53.898Z,7.33
2023-05-04T08:49:23.014Z,5.33
2023-05-04T08:51:51.584Z,12.67
2023-05-04T08:54:20.070Z,7.00
2023-05-04T08:56:47.328Z,10.00
2023-05-04T08:59:20.376Z,5.00
2023-05-04T09:01:51.426Z,5.33
2023-05-04T09:04:19.587Z,5.00
2023-05-04T09:06:47.777Z,5.33
2023-05-04T09:09:15.588Z,6.33
2023-05-04T09:11:43.825Z,5.00
2023-05-04T09:14:11.543Z,5.00
2023-05-04T09:16:38.915Z,4.00
2023-05-04T09:19:20.757Z,3.00
2023-05-04T09:21:49.610Z,5.00
2023-05-04T09:24:27.817Z,6.00
2023-05-04T09:26:56.137Z,5.00
2023-05-04T09:29:25.854Z,5.00
2023-05-04T09:31:53.181Z,4.67
2023-05-04T09:34:21.608Z,6.33
2023-05-04T09:37:04.405Z,6.33
2023-05-04T09:39:31.925Z,4.67
2023-05-04T09:41:59.131Z,5.00
2023-05-04T09:44:29.916Z,9.00
2023-05-04T09:47:00.628Z,8.33
2023-05-04T09:49:35.719Z,7.00
2023-05-04T09:52:05.175Z,7.00
2023-05-04T09:54:39.206Z,9.33
2023-05-04T09:57:11.799Z,1.00
2023-05-04T09:59:40.258Z,7.00
2023-05-04T10:02:18.793Z,9.33
2023-05-04T10:04:51.018Z,7.33
2023-05-04T10:07:18.557Z,7.33
2023-05-04T10:09:47.135Z,8.00
2023-05-04T10:12:15.049Z,8.00
2023-05-04T10:14:47.026Z,7.33
2023-05-04T10:17:30.125Z,7.33
2023-05-04T10:20:26.022Z,8.67
2023-05-04T10:23:05.192Z,8.00
2023-05-04T10:25:47.779Z,5.00
2023-05-04T10:28:20.588Z,9.33
2023-05-04T10:30:47.973Z,10.67
2023-05-04T10:33:15.345Z,8.67
2023-05-04T10:35:55.478Z,8.00
2023-05-04T10:38:39.268Z,7.00
2023-05-04T10:41:27.088Z,8.00
2023-05-04T10:44:03.967Z,9.00
2023-05-04T10:46:32.067Z,8.67
2023-05-04T10:48:59.205Z,7.00
2023-05-04T10:51:35.692Z,7.00
2023-05-04T10:54:19.371Z,7.00
2023-05-04T10:56:46.776Z,7.00
2023-05-04T10:59:17.550Z,9.67
2023-05-04T11:01:45.365Z,8.33
2023-05-04T11:04:20.842Z,8.00
2023-05-04T11:06:59.037Z,9.33
2023-05-04T11:09:29.454Z,6.00
2023-05-04T11:11:57.420Z,8.67
2023-05-04T11:14:29.942Z,8.33
2023-05-04T11:17:19.767Z,8.00
2023-05-04T11:19:54.032Z,6.00
2023-05-04T11:22:22.046Z,7.00
2023-05-04T11:24:49.491Z,7.00
2023-05-04T11:27:30.445Z,8.00
2023-05-04T11:30:02.553Z,6.00
2023-05-04T11:32:44.159Z,8.33
2023-05-04T11:35:19.526Z,8.00
2023-05-04T11:37:49.643Z,7.67
2023-05-04T11:40:22.089Z,7.00
2023-05-04T11:42:50.491Z,7.33
2023-05-04T11:45:23.386Z,8.00
2023-05-04T11:47:52.332Z,7.00
2023-05-04T11:50:20.800Z,8.67
2023-05-04T11:52:48.775Z,7.67
2023-05-04T11:55:29.893Z,7.00
2023-05-04T11:58:05.060Z,6.00
2023-05-04T12:00:49.981Z,10.00
2023-05-04T12:05:53.217Z,5.00
2023-05-04T12:08:36.505Z,6.50
2023-05-04T12:11:13.653Z,5.25
2023-05-04T12:13:42.569Z,6.00
2023-05-04T12:16:14.192Z,5.00
2023-05-04T12:18:43.177Z,6.67
2023-05-04T12:21:18.680Z,8.00
2023-05-04T12:23:47.225Z,7.25
2023-05-04T12:26:17.308Z,6.75
2023-05-04T12:28:46.304Z,9.00
2023-05-04T12:31:14.160Z,6.00
2023-05-04T12:33:42.213Z,6.33
2023-05-04T12:36:10.544Z,7.00
2023-05-04T12:38:39.035Z,6.67
2023-05-04T12:41:11.153Z,7.67
2023-05-04T12:43:39.531Z,5.00
2023-05-04T12:46:07.569Z,5.67
2023-05-04T12:48:35.043Z,5.75
2023-05-04T12:51:04.381Z,5.00
2023-05-04T12:53:32.545Z,5.00
2023-05-04T12:56:00.742Z,6.00
2023-05-04T12:58:28.602Z,6.50
2023-05-04T13:00:57.034Z,7.00
2023-05-04T13:03:24.704Z,7.00
2023-05-04T13:05:51.932Z,7.00
2023-05-04T13:08:20.056Z,6.00
2023-05-04T13:10:48.118Z,8.00
2023-05-04T13:13:18.015Z,7.50
2023-05-04T13:15:45.658Z,8.00
2023-05-04T13:18:13.339Z,7.00
2023-05-04T13:20:41.152Z,2.00
2023-05-04T13:23:08.598Z,5.00
2023-05-04T13:25:35.828Z,6.25
2023-05-04T13:28:03.708Z,7.25
2023-05-04T13:30:31.044Z,7.50
2023-05-04T13:32:58.582Z,6.00
2023-05-04T13:35:25.666Z,7.00
2023-05-04T13:37:53.519Z,6.00
2023-05-04T13:40:20.773Z,7.75
2023-05-04T13:42:48.281Z,6.00
2023-05-04T13:45:15.670Z,6.00
2023-05-04T13:47:44.010Z,5.75
2023-05-04T13:50:11.492Z,4.00
2023-05-04T13:52:39.391Z,6.00
2023-05-04T13:55:06.987Z,5.00
2023-05-04T13:57:34.783Z,5.00
2023-05-04T14:00:10.237Z,8.00
2023-05-04T14:02:37.754Z,5.50
2023-05-04T14:05:06.133Z,5.00
2023-05-04T14:07:34.686Z,6.75
2023-05-04T14:10:02.614Z,6.50
2023-05-04T14:12:30.466Z,7.00
2023-05-04T14:14:59.145Z,7.00
2023-05-04T14:17:26.651Z,7.25
2023-05-04T14:19:54.079Z,8.75
2023-05-04T14:22:21.677Z,6.00
2023-05-04T14:24:50.118Z,6.50
2023-05-04T14:27:18.040Z,7.00
2023-05-04T14:29:47.163Z,8.75
2023-05-04T14:32:15.692Z,9.75
2023-05-04T14:34:43.224Z,6.50
2023-05-04T14:37:10.853Z,6.75
2023-05-04T14:39:39.843Z,7.50
2023-05-04T14:42:08.079Z,5.50
2023-05-04T14:44:35.333Z,3.25
2023-05-04T14:47:06.064Z,6.00
2023-05-04T14:49:37.274Z,5.25
2023-05-04T14:52:05.622Z,6.75
2023-05-04T14:54:33.313Z,8.00
2023-05-04T14:57:00.947Z,7.75
2023-05-04T14:59:27.982Z,6.00
2023-05-04T15:01:57.279Z,6.00
2023-05-04T15:04:24.551Z,7.00
2023-05-04T15:06:52.632Z,6.25
2023-05-04T15:09:19.693Z,8.25
2023-05-04T15:11:47.436Z,7.00
2023-05-04T15:14:15.135Z,7.00
2023-05-04T15:16:42.662Z,8.25
2023-05-04T15:19:09.921Z,6.25
2023-05-04T15:21:37.692Z,6.50
2023-05-04T15:24:05.114Z,8.25
2023-05-04T15:26:34.792Z,8.25
2023-05-04T15:29:01.976Z,7.25
2023-05-04T15:31:29.503Z,7.25
2023-05-04T15:33:56.729Z,7.50
2023-05-04T15:36:24.721Z,9.00
2023-05-04T15:38:51.845Z,7.00
2023-05-04T15:41:19.518Z,7.25
2023-05-04T15:43:47.023Z,8.25
2023-05-04T15:46:14.736Z,7.00
2023-05-04T15:48:41.977Z,8.00
2023-05-04T15:51:12.961Z,6.25
2023-05-04T15:53:40.106Z,6.00
2023-05-04T15:56:08.600Z,6.00
2023-05-04T15:58:36.079Z,5.25
2023-05-04T16:01:04.457Z,6.00
2023-05-04T16:03:32.382Z,4.50
2023-05-04T16:05:59.879Z,4.00
2023-05-04T16:08:27.160Z,5.50
2023-05-04T16:10:54.585Z,4.50
2023-05-04T16:13:22.042Z,4.75
2023-05-04T16:15:53.525Z,5.00
2023-05-04T16:18:20.828Z,6.00
2023-05-04T16:20:48.272Z,6.50
2023-05-04T16:23:16.182Z,5.50
2023-05-04T16:25:44.207Z,6.25
2023-05-04T16:28:11.514Z,5.00
2023-05-04T16:30:40.507Z,5.00
2023-05-04T16:33:07.687Z,5.25
2023-05-04T16:35:35.292Z,5.25
2023-05-04T16:38:02.369Z,5.50
2023-05-04T16:40:32.675Z,5.00
2023-05-04T16:42:59.895Z,4.50
2023-05-04T16:45:31.496Z,5.00
2023-05-04T16:47:58.980Z,5.50
2023-05-04T16:50:26.701Z,5.00
2023-05-04T16:52:54.163Z,5.25
2023-05-04T16:55:21.823Z,6.50
2023-05-04T16:57:49.405Z,6.00
2023-05-04T17:00:17.281Z,6.00
2023-05-04T17:02:44.399Z,5.25
2023-05-04T17:05:12.105Z,6.75
2023-05-04T17:07:39.914Z,6.25
2023-05-04T17:10:08.289Z,6.25
2023-05-04T17:12:36.372Z,5.25
2023-05-04T17:15:04.299Z,5.50
2023-05-04T17:17:31.896Z,4.00
2023-05-04T17:19:59.442Z,5.00
2023-05-04T17:22:26.763Z,3.50
2023-05-04T17:24:54.595Z,4.25
2023-05-04T17:27:21.789Z,6.50
2023-05-04T17:29:49.156Z,7.33
2023-05-04T17:32:16.403Z,9.00
2023-05-04T17:34:45.576Z,6.00
2023-05-04T17:37:13.377Z,11.00
2023-05-04T17:39:41.293Z,13.00
2023-05-04T17:42:12.447Z,16.00
2023-05-04T17:44:43.427Z,17.00
2023-05-04T17:47:10.678Z,10.00
2023-05-04T17:49:38.024Z,9.00
2023-05-04T17:52:05.260Z,9.00
2023-05-04T17:54:32.920Z,9.00
2023-05-04T17:57:00.216Z,5.33
2023-05-04T17:59:27.491Z,7.33
2023-05-04T18:01:54.659Z,9.00
2023-05-04T18:04:22.652Z,4.33
2023-05-04T18:06:51.042Z,13.00
2023-05-04T18:09:19.817Z,13.33
2023-05-04T18:11:47.505Z,14.33
2023-05-04T18:14:15.095Z,14.00
2023-05-04T18:16:42.556Z,15.33
2023-05-04T18:19:10.227Z,18.00
2023-05-04T18:21:37.850Z,20.67
2023-05-04T18:24:05.559Z,19.67
2023-05-04T18:26:32.614Z,17.33
2023-05-04T18:29:11.315Z,16.67
2023-05-04T18:31:45.625Z,16.00
2023-05-04T18:34:13.098Z,15.67
2023-05-04T18:36:40.748Z,14.00
2023-05-04T18:39:08.884Z,14.00
2023-05-04T18:41:36.555Z,13.00
2023-05-04T18:44:04.504Z,13.67
2023-05-04T18:46:31.853Z,15.00
2023-05-04T18:48:59.299Z,11.67
2023-05-04T18:51:26.975Z,13.33
2023-05-04T18:53:54.722Z,11.33
2023-05-04T18:56:22.095Z,14.33
2023-05-04T18:58:49.751Z,13.00
2023-05-04T19:01:17.027Z,16.00
2023-05-04T19:03:47.238Z,16.33
2023-05-04T19:06:14.569Z,14.33
2023-05-04T19:08:42.210Z,15.00
2023-05-04T19:11:09.602Z,15.33
2023-05-04T19:13:37.251Z,12.00
2023-05-04T19:16:04.570Z,16.00
2023-05-04T19:18:34.130Z,16.00
2023-05-04T19:21:05.538Z,15.33
2023-05-04T19:23:33.080Z,12.33
2023-05-04T19:26:00.486Z,17.33
2023-05-04T19:28:27.716Z,12.00
2023-05-04T19:30:54.988Z,15.67
2023-05-04T19:33:24.654Z,16.00
2023-05-04T19:35:56.701Z,14.33
2023-05-04T19:38:24.296Z,16.00
2023-05-04T19:40:51.247Z,14.00
2023-05-04T19:43:18.581Z,14.33
2023-05-04T19:45:46.481Z,12.33
2023-05-04T19:48:16.370Z,15.33
2023-05-04T19:50:46.227Z,12.50
2023-05-04T19:53:15.897Z,16.33
2023-05-04T19:55:43.053Z,15.00
2023-05-04T19:58:10.976Z,18.00
2023-05-04T20:00:38.692Z,15.50
2023-05-04T20:03:06.521Z,20.75
2023-05-04T20:05:33.829Z,17.75
2023-05-04T20:08:04.202Z,21.50
2023-05-04T20:10:32.059Z,20.75
2023-05-04T20:12:59.563Z,20.75
2023-05-04T20:15:26.658Z,19.00
2023-05-04T20:17:54.474Z,21.25
2023-05-04T20:20:22.689Z,20.00
2023-05-04T20:22:52.487Z,21.25
2023-05-04T20:25:20.183Z,21.75
2023-05-04T20:27:48.904Z,16.00
2023-05-04T20:30:16.253Z,22.00
2023-05-04T20:32:44.341Z,18.00
2023-05-04T20:35:11.898Z,19.00
2023-05-04T20:37:39.585Z,18.75
2023-05-04T20:40:08.350Z,21.50
2023-05-04T20:42:36.054Z,19.00
2023-05-04T20:45:03.425Z,18.25
2023-05-04T20:47:30.770Z,23.25
2023-05-04T20:49:58.755Z,19.75
2023-05-04T20:52:26.577Z,20.75
2023-05-04T20:54:53.536Z,22.00
2023-05-04T20:57:21.116Z,20.25
2023-05-04T20:59:48.294Z,19.75
2023-05-04T21:02:15.878Z,19.25
2023-05-04T21:04:44.000Z,20.75
2023-05-04T21:07:11.807Z,17.50
2023-05-04T21:09:38.894Z,20.25
2023-05-04T21:12:06.362Z,17.50
2023-05-04T21:14:33.580Z,21.75
2023-05-04T21:17:01.017Z,20.25
2023-05-04T21:19:28.060Z,21.00
2023-05-04T21:21:55.814Z,20.50
2023-05-04T21:24:23.226Z,20.00
2023-05-04T21:26:51.084Z,22.25
2023-05-04T21:29:18.158Z,20.00
2023-05-04T21:31:45.480Z,19.00
2023-05-04T21:34:12.555Z,19.75
2023-05-04T21:36:40.671Z,20.00
2023-05-04T21:39:07.721Z,21.00
2023-05-04T21:41:35.223Z,17.00
2023-05-04T21:44:02.468Z,19.00
2023-05-04T21:46:29.938Z,15.50
2023-05-04T21:48:57.095Z,16.75
2023-05-04T21:51:24.630Z,17.25
2023-05-04T21:53:51.594Z,16.50
2023-05-04T21:56:19.074Z,17.50
2023-05-04T21:58:46.301Z,17.50
2023-05-04T22:01:17.301Z,17.00
2023-05-04T22:03:44.730Z,15.50
2023-05-04T22:06:12.256Z,22.00
2023-05-04T22:08:39.247Z,18.00
2023-05-04T22:11:06.758Z,20.00
2023-05-04T22:13:33.888Z,20.25
2023-05-04T22:16:01.307Z,19.00
2023-05-04T22:18:28.312Z,16.75
2023-05-04T22:20:55.684Z,17.50
2023-05-04T22:23:22.801Z,17.00
2023-05-04T22:25:50.236Z,17.25
2023-05-04T22:28:17.254Z,16.25
2023-05-04T22:30:44.467Z,16.75
2023-05-04T22:33:11.492Z,17.25
2023-05-04T22:35:38.897Z,15.75
2023-05-04T22:38:05.839Z,16.00
2023-05-04T22:40:33.351Z,16.75
2023-05-04T22:43:00.690Z,18.00
2023-05-04T22:45:27.942Z,17.50
2023-05-04T22:47:55.052Z,14.00
2023-05-04T22:50:22.565Z,19.50
2023-05-04T22:52:49.512Z,18.00
2023-05-04T22:55:17.107Z,16.25
2023-05-04T22:57:44.378Z,20.75
2023-05-04T23:00:12.310Z,16.00
2023-05-04T23:02:39.799Z,17.25
2023-05-04T23:05:09.108Z,15.75
2023-05-04T23:07:36.133Z,17.75
2023-05-04T23:10:03.624Z,18.50
2023-05-04T23:12:30.745Z,17.50
2023-05-04T23:14:58.051Z,17.25
2023-05-04T23:17:25.391Z,19.00
2023-05-04T23:19:52.821Z,14.00
2023-05-04T23:22:19.709Z,18.00
2023-05-04T23:24:47.323Z,20.50
2023-05-04T23:27:14.234Z,17.50
2023-05-04T23:29:41.486Z,16.75
2023-05-04T23:32:08.601Z,18.75
2023-05-04T23:34:36.244Z,13.00
2023-05-04T23:37:03.204Z,16.75
2023-05-04T23:39:30.929Z,13.50
2023-05-04T23:41:57.988Z,12.00
2023-05-04T23:44:25.298Z,15.25
2023-05-04T23:46:52.364Z,12.25
2023-05-04T23:49:19.603Z,13.25
2023-05-04T23:51:46.985Z,16.25
2023-05-04T23:54:14.420Z,14.25
2023-05-04T23:56:41.400Z,11.00
2023-05-04T23:59:08.569Z,14.50
